Time;durP1;ratioP1;P1;durP2;ratioP2;P2;SDS_P1;SDS_P2;PMS_P1;PMS_P2;Temp;Humidity;BMP_temperature;BMP_pressure;BME280_temperature;BME280_humidity;BME280_pressure;Samples;Min_cycle;Max_cycle;Signal;HPM_P1;HPM_P2
2022/04/29 00:00:51;;;;;;;11.73;3.57;;;6.10;99.90;;;;;;5028048;28;20651;-61
2022/04/29 00:03:21;;;;;;;8.87;3.80;;;6.10;99.90;;;;;;5033521;28;20258;-60
2022/04/29 00:05:48;;;;;;;4.17;3.20;;;6.10;99.90;;;;;;5024235;28;20202;-61
2022/04/29 00:08:16;;;;;;;6.43;3.63;;;6.10;99.90;;;;;;5039030;28;20225;-61
2022/04/29 00:10:44;;;;;;;4.60;3.27;;;6.10;99.90;;;;;;5046901;28;20730;-61
2022/04/29 00:13:13;;;;;;;5.17;3.40;;;6.10;99.90;;;;;;5017856;28;20209;-61
2022/04/29 00:15:40;;;;;;;8.53;3.97;;;6.00;99.90;;;;;;5035967;28;20209;-60
2022/04/29 00:18:08;;;;;;;6.67;3.27;;;6.00;99.90;;;;;;5005469;28;20591;-61
2022/04/29 00:20:38;;;;;;;6.23;3.30;;;6.10;99.90;;;;;;5036528;28;20323;-61
2022/04/29 00:23:05;;;;;;;8.73;3.30;;;6.20;99.90;;;;;;5045127;28;20219;-61
2022/04/29 00:25:31;;;;;;;5.60;3.33;;;6.10;99.90;;;;;;5046897;28;20351;-61
2022/04/29 00:27:59;;;;;;;7.33;3.37;;;6.20;99.90;;;;;;5006463;28;20248;-61
2022/04/29 00:30:26;;;;;;;11.40;3.80;;;6.20;99.90;;;;;;5034057;28;20959;-61
2022/04/29 00:32:53;;;;;;;7.20;3.57;;;6.20;99.90;;;;;;5027458;28;20236;-60
2022/04/29 00:35:19;;;;;;;6.03;3.10;;;6.10;99.90;;;;;;5030321;28;20203;-61
2022/04/29 00:37:50;;;;;;;8.10;3.47;;;6.00;99.90;;;;;;5034770;28;20215;-61
2022/04/29 00:40:20;;;;;;;7.83;3.90;;;5.70;99.90;;;;;;5046664;28;20222;-61
2022/04/29 00:42:48;;;;;;;9.77;3.33;;;5.50;99.90;;;;;;5020573;28;20212;-61
2022/04/29 00:45:17;;;;;;;7.13;3.73;;;5.30;99.90;;;;;;5032354;28;20211;-60
2022/04/29 00:47:45;;;;;;;8.47;3.90;;;5.10;99.90;;;;;;5034643;28;20218;-61
2022/04/29 00:50:14;;;;;;;14.00;3.43;;;5.00;99.90;;;;;;5017073;28;20212;-61
2022/04/29 00:52:45;;;;;;;10.07;3.83;;;4.90;99.90;;;;;;5034822;28;20207;-61
2022/04/29 00:55:15;;;;;;;6.60;3.87;;;4.90;99.90;;;;;;5043758;28;20416;-61
2022/04/29 00:57:46;;;;;;;13.67;3.90;;;5.00;99.90;;;;;;5030444;28;20211;-60
2022/04/29 01:00:15;;;;;;;8.23;4.00;;;5.00;99.90;;;;;;5024929;28;20344;-61
2022/04/29 01:02:44;;;;;;;12.17;4.03;;;5.20;99.90;;;;;;5032636;28;20197;-61
2022/04/29 01:05:13;;;;;;;8.60;3.50;;;5.20;99.90;;;;;;5027386;28;20199;-61
2022/04/29 01:07:41;;;;;;;7.40;3.67;;;5.20;99.90;;;;;;5033633;28;20220;-60
2022/04/29 01:10:10;;;;;;;6.13;3.17;;;5.20;99.90;;;;;;5022959;28;20691;-61
2022/04/29 01:12:41;;;;;;;6.43;3.50;;;5.30;99.90;;;;;;5046029;28;20199;-60
2022/04/29 01:15:10;;;;;;;6.13;3.57;;;5.40;99.90;;;;;;5013365;28;20575;-61
2022/04/29 01:17:39;;;;;;;7.23;3.33;;;5.40;99.90;;;;;;5029266;28;20219;-62
2022/04/29 01:20:08;;;;;;;8.30;3.53;;;5.50;99.90;;;;;;5021915;28;20231;-61
2022/04/29 01:22:36;;;;;;;7.13;3.40;;;5.50;99.90;;;;;;5032369;28;20205;-61
2022/04/29 01:25:04;;;;;;;8.03;3.30;;;5.60;99.90;;;;;;5035318;28;20205;-61
2022/04/29 01:27:31;;;;;;;4.27;3.23;;;5.60;99.90;;;;;;5037893;28;20617;-61
2022/04/29 01:30:01;;;;;;;7.67;3.67;;;5.70;99.90;;;;;;5030621;28;20217;-61
2022/04/29 01:32:29;;;;;;;9.77;4.20;;;5.80;99.90;;;;;;5019058;28;20610;-61
2022/04/29 01:34:56;;;;;;;5.20;3.17;;;5.80;99.90;;;;;;5049614;28;20202;-61
2022/04/29 01:37:22;;;;;;;5.90;3.40;;;5.90;99.90;;;;;;5011973;28;20206;-60
2022/04/29 01:39:51;;;;;;;8.17;3.83;;;5.90;99.90;;;;;;5036496;28;20227;-61
2022/04/29 01:42:18;;;;;;;5.67;3.37;;;5.90;99.90;;;;;;5023236;28;20202;-61
2022/04/29 01:44:45;;;;;;;10.10;3.90;;;6.00;99.90;;;;;;5045421;28;20210;-60
2022/04/29 01:47:13;;;;;;;9.37;3.80;;;6.00;99.90;;;;;;5012125;28;20869;-61
2022/04/29 01:49:40;;;;;;;5.90;3.10;;;6.00;99.90;;;;;;5041351;28;20915;-60
2022/04/29 01:52:08;;;;;;;9.73;3.67;;;5.90;99.90;;;;;;5015398;28;20410;-61
2022/04/29 01:54:36;;;;;;;7.27;3.40;;;5.80;99.90;;;;;;5035118;28;21045;-61
2022/04/29 01:57:05;;;;;;;5.10;3.43;;;5.70;99.90;;;;;;5045383;28;20189;-61
2022/04/29 01:59:33;;;;;;;3.77;3.37;;;5.70;99.90;;;;;;5022323;28;20216;-61
2022/04/29 02:02:02;;;;;;;6.87;3.67;;;5.60;99.90;;;;;;5017958;28;20578;-61
2022/04/29 02:04:29;;;;;;;3.80;3.33;;;5.40;99.90;;;;;;5023289;28;20220;-62
2022/04/29 02:06:56;;;;;;;11.03;3.93;;;5.20;99.90;;;;;;5023112;28;20885;-61
2022/04/29 02:09:23;;;;;;;9.83;4.90;;;5.10;99.90;;;;;;5022521;28;20287;-60
2022/04/29 02:14:44;;;;;;;10.07;3.67;;;5.00;99.90;;;;;;5079044;27;20785;-59
2022/04/29 02:17:12;;;;;;;7.63;3.90;;;4.90;99.90;;;;;;5037402;28;20688;-59
2022/04/29 02:19:40;;;;;;;9.53;4.47;;;4.80;99.90;;;;;;5046286;28;20665;-59
2022/04/29 02:22:08;;;;;;;8.47;3.73;;;4.80;99.90;;;;;;5064718;28;20335;-59
2022/04/29 02:24:35;;;;;;;7.13;4.03;;;4.70;99.90;;;;;;5030764;28;20307;-59
2022/04/29 02:27:03;;;;;;;5.23;3.80;;;4.70;99.90;;;;;;5050096;28;20215;-59
2022/04/29 02:29:30;;;;;;;9.40;4.07;;;4.70;99.90;;;;;;5059184;28;20233;-59
2022/04/29 02:31:58;;;;;;;5.70;4.17;;;4.80;99.90;;;;;;5046622;28;20239;-59
2022/04/29 02:34:26;;;;;;;9.00;4.37;;;4.90;99.90;;;;;;5018369;28;20232;-59
2022/04/29 02:36:53;;;;;;;6.17;4.40;;;5.00;99.90;;;;;;5062446;28;20754;-59
2022/04/29 02:39:20;;;;;;;7.13;4.77;;;5.00;99.90;;;;;;5034356;28;20201;-59
2022/04/29 02:41:48;;;;;;;6.67;4.10;;;5.00;99.90;;;;;;5049764;28;20215;-59
2022/04/29 02:44:15;;;;;;;6.80;3.80;;;5.00;99.90;;;;;;5058820;28;20216;-59
2022/04/29 02:49:24;;;;;;;3.87;3.33;;;5.00;99.90;;;;;;5040090;28;20205;-59
2022/04/29 02:51:51;;;;;;;5.03;3.83;;;4.90;99.90;;;;;;5053074;28;20201;-59
2022/04/29 02:54:18;;;;;;;5.00;3.67;;;4.80;99.90;;;;;;5045650;28;20729;-60
2022/04/29 02:56:45;;;;;;;6.50;3.53;;;4.70;99.90;;;;;;5048317;28;20298;-59
2022/04/29 02:59:12;;;;;;;3.90;3.40;;;4.70;99.90;;;;;;5055807;28;20837;-59
2022/04/29 03:01:39;;;;;;;6.50;3.47;;;4.70;99.90;;;;;;5040769;28;20223;-59
2022/04/29 03:04:07;;;;;;;8.80;3.53;;;4.90;99.90;;;;;;5040737;28;20201;-63
2022/04/29 03:06:35;;;;;;;4.53;3.70;;;4.90;99.90;;;;;;5046892;28;20930;-59
2022/04/29 03:09:02;;;;;;;4.03;3.10;;;4.90;99.90;;;;;;5057851;28;20230;-59
2022/04/29 03:11:29;;;;;;;5.37;3.70;;;4.90;99.90;;;;;;5044035;28;20212;-60
2022/04/29 03:13:56;;;;;;;5.30;4.10;;;4.90;99.90;;;;;;5030368;28;20228;-59
2022/04/29 03:16:23;;;;;;;4.23;3.63;;;4.90;99.90;;;;;;5042296;28;20204;-59
2022/04/29 03:18:50;;;;;;;4.83;3.97;;;4.90;99.90;;;;;;5061506;28;20199;-59
2022/04/29 03:21:18;;;;;;;6.17;4.03;;;4.90;99.90;;;;;;5017102;28;20211;-60
2022/04/29 03:23:47;;;;;;;4.60;3.87;;;4.90;99.90;;;;;;5047400;28;21223;-60
2022/04/29 03:26:14;;;;;;;7.87;4.40;;;4.80;99.90;;;;;;5010112;28;20259;-60
2022/04/29 03:28:41;;;;;;;4.50;3.90;;;4.80;99.90;;;;;;5036135;28;20291;-60
2022/04/29 03:31:08;;;;;;;7.53;3.67;;;4.90;99.90;;;;;;5025232;28;20197;-59
2022/04/29 03:33:35;;;;;;;6.30;4.20;;;4.90;99.90;;;;;;5033922;28;20267;-60
2022/04/29 03:36:02;;;;;;;5.50;4.13;;;4.80;99.90;;;;;;5027030;28;20203;-60
2022/04/29 03:38:29;;;;;;;7.87;4.87;;;4.80;99.90;;;;;;5031684;28;20203;-60
2022/04/29 03:40:57;;;;;;;8.60;6.20;;;4.80;99.90;;;;;;5015970;28;20211;-59
2022/04/29 03:43:24;;;;;;;8.30;6.17;;;4.70;99.90;;;;;;5036521;28;20312;-60
2022/04/29 03:45:51;;;;;;;9.77;6.00;;;4.70;99.90;;;;;;5025771;28;20200;-60
2022/04/29 03:48:18;;;;;;;8.70;6.53;;;4.70;99.90;;;;;;5030218;28;22775;-60
2022/04/29 03:50:46;;;;;;;8.57;6.10;;;4.70;99.90;;;;;;5041935;28;20212;-60
2022/04/29 03:53:13;;;;;;;9.30;6.13;;;4.60;99.90;;;;;;5015812;28;21014;-59
2022/04/29 03:55:40;;;;;;;11.90;6.67;;;4.70;99.90;;;;;;5035708;28;20720;-60
2022/04/29 03:58:08;;;;;;;12.13;6.40;;;4.60;99.90;;;;;;5021883;28;20228;-59
2022/04/29 04:00:35;;;;;;;11.23;5.93;;;4.60;99.90;;;;;;5023194;28;20680;-60
2022/04/29 04:03:05;;;;;;;12.10;7.07;;;4.50;99.90;;;;;;5013789;28;20220;-60
2022/04/29 04:05:32;;;;;;;12.13;6.90;;;4.60;99.90;;;;;;5015648;28;20218;-59
2022/04/29 04:08:00;;;;;;;10.83;6.67;;;4.70;99.90;;;;;;5019454;28;20226;-60
2022/04/29 04:10:27;;;;;;;14.60;6.90;;;4.70;99.90;;;;;;5027017;28;20201;-60
2022/04/29 04:12:54;;;;;;;14.07;8.10;;;4.70;99.90;;;;;;5008858;28;20233;-60
2022/04/29 04:15:24;;;;;;;11.67;6.80;;;4.70;99.90;;;;;;5037517;28;20232;-60
2022/04/29 04:17:51;;;;;;;13.60;7.77;;;4.60;99.90;;;;;;5031198;28;20220;-61
2022/04/29 04:20:19;;;;;;;20.13;8.17;;;4.60;99.90;;;;;;5031691;28;20955;-61
2022/04/29 04:22:46;;;;;;;20.40;7.90;;;4.60;99.90;;;;;;5009063;28;20201;-60
2022/04/29 04:25:15;;;;;;;18.00;8.03;;;4.60;99.90;;;;;;5035915;28;20210;-60
2022/04/29 04:27:42;;;;;;;16.37;7.13;;;4.70;99.90;;;;;;5016632;28;20207;-60
2022/04/29 04:30:10;;;;;;;17.43;7.37;;;4.80;99.90;;;;;;5027869;28;20204;-60
2022/04/29 04:32:40;;;;;;;24.77;8.20;;;4.70;99.90;;;;;;5030496;28;20266;-60
2022/04/29 04:35:08;;;;;;;18.67;8.17;;;4.70;99.90;;;;;;5011849;28;20614;-60
2022/04/29 04:37:35;;;;;;;17.10;7.63;;;4.80;99.90;;;;;;5033090;28;20200;-59
2022/04/29 04:40:04;;;;;;;17.27;8.03;;;4.70;99.90;;;;;;4996754;28;20231;-60
2022/04/29 04:42:31;;;;;;;12.67;7.43;;;4.80;99.90;;;;;;5029086;28;20810;-60
2022/04/29 04:44:58;;;;;;;14.70;7.43;;;4.80;99.90;;;;;;5032463;28;20227;-60
2022/04/29 04:47:26;;;;;;;14.83;7.53;;;4.90;99.90;;;;;;5022882;28;20979;-60
2022/04/29 04:49:55;;;;;;;12.43;6.60;;;5.00;99.90;;;;;;5023445;28;20209;-60
2022/04/29 04:52:22;;;;;;;15.93;6.50;;;5.00;99.90;;;;;;5023606;28;20555;-60
2022/04/29 04:54:49;;;;;;;11.37;6.50;;;5.10;99.90;;;;;;4999873;28;20229;-60
2022/04/29 04:57:16;;;;;;;14.83;7.20;;;5.10;99.90;;;;;;5014707;28;20208;-59
2022/04/29 04:59:43;;;;;;;13.53;6.40;;;5.20;99.90;;;;;;5025555;28;20276;-60
2022/04/29 05:02:10;;;;;;;13.13;5.63;;;5.30;99.90;;;;;;5036864;28;20473;-59
2022/04/29 05:04:37;;;;;;;8.57;6.30;;;5.30;99.90;;;;;;5029706;28;20905;-60
2022/04/29 05:07:05;;;;;;;11.60;5.93;;;5.30;99.90;;;;;;5034519;28;20201;-59
2022/04/29 05:09:32;;;;;;;12.10;5.77;;;5.40;99.90;;;;;;5008543;28;20326;-60
2022/04/29 05:11:59;;;;;;;8.90;5.07;;;5.50;99.90;;;;;;5021832;28;20224;-60
2022/04/29 05:14:26;;;;;;;7.53;4.80;;;5.60;99.90;;;;;;5026060;28;20228;-60
2022/04/29 05:16:53;;;;;;;6.90;4.90;;;5.70;99.90;;;;;;5020951;28;20233;-60
2022/04/29 05:19:20;;;;;;;9.73;5.43;;;5.80;99.90;;;;;;5029303;28;20842;-60
2022/04/29 05:21:47;;;;;;;14.00;6.70;;;5.90;99.90;;;;;;5047869;28;20221;-60
2022/04/29 05:24:15;;;;;;;9.63;5.93;;;5.90;99.90;;;;;;5015983;28;20215;-60
2022/04/29 05:26:42;;;;;;;10.50;6.43;;;6.00;99.90;;;;;;5036019;28;20209;-60
2022/04/29 05:29:09;;;;;;;13.77;6.03;;;6.10;99.90;;;;;;5036172;28;20203;-60
2022/04/29 05:31:36;;;;;;;9.20;5.70;;;6.10;99.90;;;;;;5045382;28;20207;-60
2022/04/29 05:34:05;;;;;;;12.70;5.77;;;6.20;99.90;;;;;;5042748;28;20225;-60
2022/04/29 05:36:32;;;;;;;7.87;5.40;;;6.30;99.90;;;;;;5047573;28;20195;-60
2022/04/29 05:44:30;;;;;;;9.77;5.90;;;6.60;99.90;;;;;;5024711;28;20217;-60
2022/04/29 05:46:57;;;;;;;10.03;5.77;;;6.60;99.90;;;;;;5050312;28;20205;-60
2022/04/29 05:49:24;;;;;;;9.10;5.67;;;6.70;99.90;;;;;;5030917;28;20209;-60
2022/04/29 05:51:51;;;;;;;10.73;6.27;;;6.70;99.90;;;;;;5041218;28;20207;-60
2022/04/29 05:54:18;;;;;;;10.33;5.90;;;6.70;99.90;;;;;;5037719;28;20235;-60
2022/04/29 05:56:47;;;;;;;11.93;6.23;;;6.80;99.90;;;;;;5026360;28;20578;-60
2022/04/29 05:59:14;;;;;;;11.90;5.97;;;6.80;99.90;;;;;;5022065;28;20831;-60
2022/04/29 06:01:41;;;;;;;12.03;6.40;;;6.90;99.90;;;;;;5043003;28;20242;-59
2022/04/29 06:04:08;;;;;;;13.17;6.00;;;6.90;99.90;;;;;;5034702;28;20609;-60
2022/04/29 06:06:35;;;;;;;16.67;7.40;;;7.00;99.90;;;;;;5030614;28;20199;-61
2022/04/29 06:09:02;;;;;;;17.80;7.97;;;7.00;99.90;;;;;;5047501;28;20867;-60
2022/04/29 06:11:28;;;;;;;13.80;6.60;;;7.10;99.90;;;;;;5023396;28;20209;-61
2022/04/29 06:13:57;;;;;;;12.57;6.87;;;7.10;99.90;;;;;;5039690;28;20231;-61
2022/04/29 06:16:24;;;;;;;13.43;7.30;;;7.20;99.90;;;;;;5038399;28;20293;-61
2022/04/29 06:18:51;;;;;;;16.57;6.40;;;7.20;99.90;;;;;;5051870;28;20585;-60
2022/04/29 06:21:20;;;;;;;13.43;6.47;;;7.30;99.90;;;;;;5036145;28;20430;-60
2022/04/29 06:23:48;;;;;;;11.40;6.77;;;7.30;99.90;;;;;;5052670;28;20257;-60
2022/04/29 06:26:15;;;;;;;12.03;6.53;;;7.30;99.90;;;;;;5027310;28;20212;-60
2022/04/29 06:28:42;;;;;;;9.13;5.90;;;7.40;99.90;;;;;;5047260;28;20291;-60
2022/04/29 06:31:11;;;;;;;12.63;5.53;;;7.40;99.90;;;;;;5030908;28;20206;-60
2022/04/29 06:33:39;;;;;;;12.27;6.00;;;7.50;99.90;;;;;;5046780;28;20316;-61
2022/04/29 06:36:06;;;;;;;11.43;6.17;;;7.60;99.90;;;;;;5036119;28;20622;-60
2022/04/29 06:38:33;;;;;;;14.57;6.00;;;7.70;99.90;;;;;;5025331;28;20239;-60
2022/04/29 06:41:02;;;;;;;12.37;5.50;;;7.80;99.90;;;;;;5045345;28;20197;-61
2022/04/29 06:43:30;;;;;;;12.53;4.50;;;7.80;99.90;;;;;;5019364;28;20865;-60
2022/04/29 06:45:57;;;;;;;5.93;4.73;;;7.90;99.90;;;;;;5025889;28;20574;-60
2022/04/29 06:48:27;;;;;;;8.97;4.73;;;7.90;99.90;;;;;;5055139;28;20216;-60
2022/04/29 06:50:54;;;;;;;9.13;4.67;;;8.00;99.90;;;;;;5039073;28;20197;-60
2022/04/29 06:53:21;;;;;;;9.77;3.00;;;8.10;99.90;;;;;;5038993;28;20204;-61
2022/04/29 06:55:48;;;;;;;14.57;4.40;;;8.00;99.90;;;;;;5045666;28;20795;-61
2022/04/29 06:58:15;;;;;;;7.47;3.60;;;8.10;99.90;;;;;;5020180;28;25212;-60
2022/04/29 07:00:43;;;;;;;4.77;3.13;;;8.20;99.90;;;;;;5031026;28;20205;-61
2022/04/29 07:03:10;;;;;;;8.40;3.47;;;8.20;99.90;;;;;;5053791;28;20228;-61
2022/04/29 07:05:39;;;;;;;8.03;3.20;;;8.30;99.90;;;;;;5046483;28;20956;-61
2022/04/29 07:08:07;;;;;;;6.93;3.37;;;8.40;99.90;;;;;;5034374;28;21121;-61
2022/04/29 07:10:34;;;;;;;9.03;3.50;;;8.50;99.90;;;;;;5049867;28;20209;-61
2022/04/29 07:13:03;;;;;;;7.23;3.17;;;8.50;99.90;;;;;;5036473;28;20254;-60
2022/04/29 07:15:30;;;;;;;9.03;3.43;;;8.50;99.90;;;;;;5006514;28;20371;-61
2022/04/29 07:17:56;;;;;;;6.33;3.20;;;8.60;99.90;;;;;;5049452;28;20251;-61
2022/04/29 07:20:23;;;;;;;10.27;3.43;;;8.60;99.90;;;;;;5035115;28;21274;-61
2022/04/29 07:22:52;;;;;;;7.77;2.60;;;8.70;99.90;;;;;;5040108;28;20206;-61
2022/04/29 07:25:19;;;;;;;7.90;3.13;;;8.90;99.90;;;;;;5038525;28;20227;-60
2022/04/29 07:27:47;;;;;;;4.30;2.70;;;8.90;99.90;;;;;;5035373;28;20220;-61
2022/04/29 07:30:14;;;;;;;5.70;3.47;;;8.90;99.90;;;;;;5023393;28;20213;-60
2022/04/29 07:32:40;;;;;;;3.70;2.90;;;9.00;99.90;;;;;;5038502;28;20309;-61
2022/04/29 07:43:22;;;;;;;8.43;2.87;;;9.40;99.90;;;;;;5037654;28;20262;-61
2022/04/29 07:45:51;;;;;;;11.17;3.13;;;9.60;99.90;;;;;;5032380;28;20208;-61
2022/04/29 07:48:19;;;;;;;4.13;2.40;;;9.60;99.90;;;;;;5035658;28;20212;-61
2022/04/29 07:50:46;;;;;;;5.93;2.50;;;9.70;99.90;;;;;;5049317;28;20231;-61
2022/04/29 07:53:15;;;;;;;6.60;2.50;;;9.60;99.90;;;;;;5040873;28;20188;-60
2022/04/29 07:55:42;;;;;;;8.03;2.47;;;9.50;99.90;;;;;;5050820;28;20248;-61
2022/04/29 07:58:09;;;;;;;6.93;2.70;;;9.50;99.90;;;;;;5045258;28;20560;-61
2022/04/29 08:00:38;;;;;;;4.60;2.43;;;9.40;99.90;;;;;;5040184;28;20743;-61
2022/04/29 08:03:05;;;;;;;3.50;2.60;;;9.50;99.90;;;;;;5020206;28;20208;-61
2022/04/29 08:05:32;;;;;;;6.10;2.90;;;9.50;99.90;;;;;;5035088;28;20212;-60
2022/04/29 08:08:00;;;;;;;5.70;3.43;;;9.50;99.90;;;;;;5045989;28;20378;-60
2022/04/29 08:10:31;;;;;;;9.13;3.03;;;9.50;99.90;;;;;;5042184;28;20200;-60
2022/04/29 08:12:59;;;;;;;5.97;2.97;;;9.60;99.90;;;;;;5045230;28;20689;-60
2022/04/29 08:15:26;;;;;;;10.27;2.93;;;9.60;99.90;;;;;;5035156;28;20228;-61
2022/04/29 08:17:53;;;;;;;12.80;4.00;;;9.60;99.90;;;;;;5033368;28;20196;-60
2022/04/29 08:20:20;;;;;;;6.17;2.80;;;9.70;99.90;;;;;;5025007;28;20607;-60
2022/04/29 08:22:47;;;;;;;5.73;3.27;;;9.70;99.90;;;;;;5051997;28;20674;-60
2022/04/29 08:25:17;;;;;;;10.20;3.50;;;9.70;99.90;;;;;;5045629;28;20278;-60
2022/04/29 08:27:47;;;;;;;5.47;2.27;;;9.60;99.90;;;;;;5048435;28;20229;-60
2022/04/29 08:30:14;;;;;;;4.80;3.00;;;9.50;99.90;;;;;;5026231;28;20205;-60
2022/04/29 08:32:43;;;;;;;9.40;3.67;;;9.50;99.90;;;;;;5031567;28;20292;-60
2022/04/29 08:35:11;;;;;;;6.37;3.00;;;9.50;99.90;;;;;;5032974;28;20277;-60
2022/04/29 08:37:38;;;;;;;7.87;4.10;;;9.60;99.90;;;;;;5051508;28;20989;-61
2022/04/29 08:40:07;;;;;;;9.40;5.60;;;9.60;99.90;;;;;;5039780;28;20229;-61
2022/04/29 08:42:37;;;;;;;7.77;3.70;;;9.70;99.90;;;;;;5038537;28;20718;-60
2022/04/29 08:45:08;;;;;;;15.00;5.73;;;9.70;99.90;;;;;;5032516;28;20576;-60
2022/04/29 08:47:37;;;;;;;6.23;3.73;;;9.90;99.90;;;;;;5035508;28;20780;-60
2022/04/29 08:50:07;;;;;;;6.37;2.80;;;9.90;99.90;;;;;;5036197;28;20225;-60
2022/04/29 08:52:35;;;;;;;16.80;8.83;;;9.90;99.90;;;;;;5028859;28;20238;-60
2022/04/29 09:00:37;;;;;;;5.77;3.37;;;10.00;99.90;;;;;;5036790;28;20311;-60
2022/04/29 09:03:04;;;;;;;5.20;3.23;;;10.00;99.90;;;;;;5039264;28;20205;-60
2022/04/29 09:05:33;;;;;;;11.07;2.90;;;10.10;99.90;;;;;;5039900;28;21548;-60
2022/04/29 09:08:01;;;;;;;5.70;2.70;;;10.20;99.90;;;;;;5042808;28;20607;-60
2022/04/29 09:10:30;;;;;;;9.87;3.03;;;10.20;99.90;;;;;;5054693;28;20298;-60
2022/04/29 09:13:12;;;;;;;12.73;3.50;;;10.30;99.90;;;;;;5054185;28;20241;-60
2022/04/29 09:15:47;;;;;;;7.93;3.37;;;10.50;99.90;;;;;;5043009;28;20236;-60
2022/04/29 09:18:14;;;;;;;6.97;3.60;;;10.50;99.90;;;;;;5030830;28;20212;-60
2022/04/29 09:20:42;;;;;;;7.10;3.03;;;10.40;99.90;;;;;;5057240;28;20208;-60
2022/04/29 09:23:10;;;;;;;7.17;3.27;;;10.20;99.90;;;;;;5030319;28;20936;-60
2022/04/29 09:25:37;;;;;;;6.90;3.63;;;10.20;99.90;;;;;;5052965;28;20253;-60
2022/04/29 09:28:06;;;;;;;16.27;4.03;;;10.20;99.90;;;;;;5053162;28;20197;-60
2022/04/29 09:30:38;;;;;;;7.93;3.23;;;10.20;99.90;;;;;;5042611;28;20209;-60
2022/04/29 09:33:08;;;;;;;7.73;3.43;;;10.30;99.90;;;;;;5034075;28;20211;-60
2022/04/29 09:35:39;;;;;;;7.63;2.50;;;10.40;99.90;;;;;;5053134;28;20232;-60
2022/04/29 09:40:53;;;;;;;6.80;2.50;;;10.20;99.90;;;;;;5055547;28;20208;-60
2022/04/29 09:43:36;;;;;;;7.40;2.70;;;10.30;99.90;;;;;;5042012;28;20573;-60
2022/04/29 09:46:17;;;;;;;6.40;2.70;;;10.50;99.90;;;;;;5027569;28;20246;-61
2022/04/29 09:49:06;;;;;;;4.23;2.30;;;10.70;99.90;;;;;;5046230;28;20333;-60
2022/04/29 09:51:41;;;;;;;5.57;2.80;;;10.70;99.90;;;;;;5053358;28;20295;-60
2022/04/29 09:54:13;;;;;;;8.23;3.10;;;10.50;99.90;;;;;;5044476;28;20208;-60
2022/04/29 09:56:40;;;;;;;6.43;2.90;;;10.40;99.90;;;;;;5050233;28;20281;-60
2022/04/29 09:59:08;;;;;;;3.73;2.23;;;10.40;99.90;;;;;;5053943;28;20247;-60
2022/04/29 10:01:36;;;;;;;5.17;2.90;;;10.50;99.90;;;;;;5043965;28;20231;-60
2022/04/29 10:04:04;;;;;;;4.57;2.90;;;10.70;99.90;;;;;;5034046;28;20669;-61
2022/04/29 10:06:34;;;;;;;5.03;2.00;;;10.80;99.90;;;;;;5054785;28;20250;-60
2022/04/29 10:09:02;;;;;;;3.80;2.10;;;10.70;99.90;;;;;;5044318;28;20591;-60
2022/04/29 10:11:34;;;;;;;4.73;1.97;;;10.70;99.90;;;;;;5055928;28;20213;-60
2022/04/29 10:14:04;;;;;;;3.43;2.20;;;10.60;99.90;;;;;;5044687;28;20201;-60
2022/04/29 10:16:33;;;;;;;3.97;1.80;;;10.60;99.90;;;;;;5046389;28;21024;-61
2022/04/29 10:21:51;;;;;;;15.40;2.37;;;10.70;99.90;;;;;;5030938;28;20363;-60
2022/04/29 10:24:18;;;;;;;4.07;1.97;;;10.80;99.90;;;;;;5041865;28;20205;-60
2022/04/29 10:26:48;;;;;;;5.47;1.70;;;10.60;99.90;;;;;;5045013;28;20278;-60
2022/04/29 10:29:16;;;;;;;3.60;1.87;;;10.60;99.90;;;;;;5053387;28;20295;-60
2022/04/29 10:31:43;;;;;;;2.30;1.67;;;10.70;99.90;;;;;;5050893;28;20263;-60
2022/04/29 10:34:29;;;;;;;2.30;1.40;;;10.70;99.90;;;;;;5031169;28;20237;-61
2022/04/29 10:36:57;;;;;;;3.60;1.93;;;10.70;99.90;;;;;;5039803;28;20224;-60
2022/04/29 10:39:24;;;;;;;9.77;1.80;;;10.80;99.90;;;;;;5054747;28;20938;-60
2022/04/29 10:42:02;;;;;;;5.13;2.00;;;10.90;99.90;;;;;;5044753;28;20261;-60
2022/04/29 10:44:30;;;;;;;3.83;2.10;;;11.00;99.90;;;;;;5055468;28;20249;-60
2022/04/29 10:47:02;;;;;;;4.60;2.10;;;11.00;99.90;;;;;;5054273;28;20200;-61
2022/04/29 10:49:31;;;;;;;5.68;2.30;;;11.10;99.90;;;;;;5024970;28;20208;-60
2022/04/29 10:52:01;;;;;;;4.70;2.23;;;10.90;99.90;;;;;;5033023;28;20213;-60
2022/04/29 10:54:56;;;;;;;11.20;2.60;;;10.90;99.90;;;;;;5037018;28;20658;-61
2022/04/29 10:57:37;;;;;;;4.77;2.17;;;10.90;99.90;;;;;;5042561;28;20231;-60
2022/04/29 11:00:11;;;;;;;4.30;1.83;;;10.80;99.90;;;;;;5050754;28;20661;-61
2022/04/29 11:02:38;;;;;;;5.60;1.90;;;10.80;99.90;;;;;;5056004;28;20622;-60
2022/04/29 11:05:08;;;;;;;6.43;2.17;;;10.80;99.90;;;;;;5046994;28;20204;-60
2022/04/29 11:07:44;;;;;;;2.67;2.17;;;10.80;99.90;;;;;;5038430;28;20201;-60
2022/04/29 11:10:19;;;;;;;3.30;2.10;;;10.70;99.90;;;;;;5028386;28;20197;-61
2022/04/29 11:13:03;;;;;;;5.10;2.00;;;10.60;99.90;;;;;;5040435;28;20201;-60
2022/04/29 11:15:44;;;;;;;3.47;2.20;;;10.70;99.90;;;;;;5047144;28;20228;-60
2022/04/29 11:18:23;;;;;;;3.63;2.17;;;10.80;99.90;;;;;;5058548;28;20205;-60
2022/04/29 11:20:55;;;;;;;5.95;2.20;;;10.70;99.90;;;;;;5037075;28;20327;-61
2022/04/29 11:26:21;;;;;;;2.93;2.20;;;10.80;99.90;;;;;;4988356;28;20608;-60
2022/04/29 11:28:53;;;;;;;5.17;2.50;;;10.60;99.90;;;;;;5040835;28;20228;-60
2022/04/29 11:31:20;;;;;;;2.87;1.90;;;10.60;99.90;;;;;;5041350;28;20205;-61
2022/04/29 11:33:47;;;;;;;1.70;1.60;;;10.70;99.90;;;;;;5053159;28;20211;-60
2022/04/29 11:36:15;;;;;;;5.83;2.20;;;10.70;99.90;;;;;;5045602;28;20233;-60
2022/04/29 11:38:44;;;;;;;3.63;1.90;;;10.80;99.90;;;;;;5031155;28;20258;-61
2022/04/29 11:41:19;;;;;;;7.33;2.10;;;10.90;99.90;;;;;;5050370;28;20739;-60
2022/04/29 11:43:47;;;;;;;6.37;2.23;;;10.90;99.90;;;;;;5034721;28;20836;-61
2022/04/29 11:46:15;;;;;;;3.07;2.03;;;11.00;99.90;;;;;;5052663;28;20209;-61
2022/04/29 11:48:52;;;;;;;4.27;1.97;;;11.20;99.90;;;;;;5029601;28;20967;-60
2022/04/29 11:51:20;;;;;;;5.50;2.25;;;11.20;99.90;;;;;;5047344;28;20581;-60
2022/04/29 11:53:55;;;;;;;4.60;2.33;;;11.40;99.90;;;;;;5029465;28;20864;-60
2022/04/29 11:56:23;;;;;;;5.78;2.03;;;11.60;99.90;;;;;;5041930;28;20232;-60
2022/04/29 11:58:53;;;;;;;6.80;2.33;;;11.60;99.90;;;;;;5043694;28;20263;-62
2022/04/29 12:01:20;;;;;;;4.07;2.20;;;11.60;99.90;;;;;;5018847;28;21153;-60
2022/04/29 12:03:52;;;;;;;4.45;2.28;;;11.50;99.90;;;;;;5020067;28;20196;-61
2022/04/29 12:06:21;;;;;;;3.55;2.22;;;11.40;99.90;;;;;;5017243;28;20213;-61
2022/04/29 12:08:48;;;;;;;5.30;2.20;;;11.40;99.90;;;;;;5018249;28;20209;-61
2022/04/29 12:11:23;;;;;;;3.58;2.35;;;11.30;99.90;;;;;;5026365;28;21788;-61
2022/04/29 12:13:50;;;;;;;4.90;2.33;;;11.30;99.90;;;;;;5030605;28;20211;-60
2022/04/29 12:16:17;;;;;;;5.28;2.28;;;11.40;99.90;;;;;;5039389;28;20738;-60
2022/04/29 12:18:46;;;;;;;4.43;2.23;;;11.30;99.90;;;;;;5033496;28;20202;-60
2022/04/29 12:21:20;;;;;;;6.63;2.97;;;11.30;99.90;;;;;;5042002;28;20229;-60
2022/04/29 12:23:48;;;;;;;3.00;2.03;;;11.40;99.90;;;;;;5026736;28;20215;-60
2022/04/29 12:26:15;;;;;;;4.75;2.28;;;11.50;99.90;;;;;;5073112;28;20208;-64
2022/04/29 12:28:42;;;;;;;4.13;1.85;;;11.40;99.90;;;;;;5061447;28;20240;-61
2022/04/29 12:36:48;;;;;;;6.20;1.90;;;11.40;99.90;;;;;;5010120;28;20290;-61
2022/04/29 12:39:21;;;;;;;2.90;1.80;;;11.40;99.90;;;;;;4999262;28;22385;-61
2022/04/29 12:42:01;;;;;;;5.03;1.88;;;11.50;99.90;;;;;;5020016;28;20220;-61
2022/04/29 12:47:28;;;;;;;6.15;2.08;;;11.90;99.90;;;;;;5002401;28;20271;-61
2022/04/29 12:50:16;;;;;;;4.07;2.10;;;11.80;99.90;;;;;;4997578;28;20219;-60
2022/04/29 12:52:59;;;;;;;2.85;1.92;;;11.70;99.90;;;;;;5007952;28;20240;-61
2022/04/29 12:55:29;;;;;;;3.38;1.95;;;11.50;99.90;;;;;;5021739;28;20225;-61
2022/04/29 12:58:05;;;;;;;2.08;1.73;;;11.50;99.90;;;;;;5020016;28;20362;-61
2022/04/29 13:00:32;;;;;;;5.70;2.03;;;11.60;99.90;;;;;;5018824;28;20220;-61
2022/04/29 13:03:03;;;;;;;3.38;1.83;;;11.60;99.90;;;;;;5020067;28;20811;-60
2022/04/29 13:05:31;;;;;;;8.18;2.20;;;11.50;99.90;;;;;;5022604;28;20225;-60
2022/04/29 13:07:59;;;;;;;3.38;1.77;;;11.50;99.90;;;;;;5018535;28;20750;-60
2022/04/29 13:10:28;;;;;;;6.15;2.00;;;11.40;99.90;;;;;;5003632;28;20201;-60
2022/04/29 13:12:55;;;;;;;2.92;2.08;;;11.30;99.90;;;;;;5020309;28;23707;-60
2022/04/29 13:15:23;;;;;;;3.53;2.23;;;11.20;99.90;;;;;;5011475;28;20273;-61
2022/04/29 13:17:50;;;;;;;4.37;2.20;;;11.00;99.90;;;;;;5008393;28;20229;-61
2022/04/29 13:20:17;;;;;;;2.67;2.17;;;10.90;99.90;;;;;;5035276;28;20217;-61
2022/04/29 13:22:44;;;;;;;3.83;2.27;;;10.80;99.90;;;;;;5011148;28;20239;-62
2022/04/29 13:25:11;;;;;;;4.03;2.20;;;10.80;99.90;;;;;;5025220;28;20231;-61
2022/04/29 13:27:39;;;;;;;3.93;2.40;;;10.70;99.90;;;;;;5027879;22;20244;-61
2022/04/29 13:30:07;;;;;;;3.67;2.70;;;10.80;99.90;;;;;;5018598;28;20200;-60
2022/04/29 13:32:35;;;;;;;2.93;2.27;;;10.80;99.90;;;;;;5021839;28;20700;-61
2022/04/29 13:35:03;;;;;;;5.60;2.30;;;10.80;99.90;;;;;;5049676;28;20325;-61
2022/04/29 13:37:32;;;;;;;4.93;2.80;;;10.80;99.90;;;;;;5032993;28;20708;-61
2022/04/29 13:39:59;;;;;;;5.17;2.47;;;10.80;99.90;;;;;;5042558;28;23089;-60